Time;durP1;ratioP1;P1;durP2;ratioP2;P2;SDS_P1;SDS_P2;PMS_P1;PMS_P2;Temp;Humidity;BMP_temperature;BMP_pressure;BME280_temperature;BME280_humidity;BME280_pressure;Samples;Min_cycle;Max_cycle;Signal;HPM_P1;HPM_P2
2021/08/02 00:00:17;;;;;;;4.13;1.97;;;15.00;99.90;;;;;;5110644;28;20513;-66
2021/08/02 00:02:55;;;;;;;3.23;1.73;;;14.90;99.90;;;;;;5111152;28;20478;-67
2021/08/02 00:05:23;;;;;;;2.80;1.80;;;14.90;99.90;;;;;;5110591;28;20440;-67
2021/08/02 00:07:58;;;;;;;6.43;2.20;;;14.80;99.90;;;;;;5107774;28;20446;-66
2021/08/02 00:10:29;;;;;;;2.40;1.60;;;14.80;99.90;;;;;;5111117;28;20430;-68
2021/08/02 00:13:06;;;;;;;2.40;1.57;;;14.80;99.90;;;;;;5112628;28;20865;-66
2021/08/02 00:15:33;;;;;;;2.30;1.27;;;14.70;99.80;;;;;;5110765;28;20516;-66
2021/08/02 00:18:00;;;;;;;3.10;1.70;;;14.60;99.60;;;;;;5110629;28;20831;-70
2021/08/02 00:20:31;;;;;;;2.20;1.20;;;14.70;99.50;;;;;;5109281;28;20459;-71
2021/08/02 00:23:02;;;;;;;5.00;2.37;;;14.60;99.50;;;;;;5113920;28;20469;-66
2021/08/02 00:25:30;;;;;;;2.00;1.10;;;14.60;99.30;;;;;;5113592;28;20442;-66
2021/08/02 00:27:57;;;;;;;3.77;1.77;;;14.50;99.40;;;;;;5112611;28;20426;-67
2021/08/02 00:30:25;;;;;;;4.10;1.57;;;14.60;99.00;;;;;;5109533;28;20499;-66
2021/08/02 00:32:52;;;;;;;5.00;1.60;;;14.60;98.60;;;;;;5118182;27;20828;-66
2021/08/02 00:35:19;;;;;;;2.40;1.33;;;14.60;98.80;;;;;;5116325;28;20518;-66
2021/08/02 00:37:54;;;;;;;2.60;1.50;;;14.50;98.70;;;;;;5116426;28;20525;-67
2021/08/02 00:41:06;;;;;;;2.07;1.40;;;14.60;98.80;;;;;;5116639;28;20524;-67
2021/08/02 00:44:17;;;;;;;4.00;2.00;;;14.50;98.90;;;;;;5069858;28;20975;-67
2021/08/02 00:46:51;;;;;;;3.17;1.80;;;14.60;99.00;;;;;;5116251;28;20517;-70
2021/08/02 00:49:23;;;;;;;3.77;2.13;;;14.60;98.50;;;;;;5116264;28;20520;-66
2021/08/02 00:51:53;;;;;;;2.10;1.60;;;14.60;98.70;;;;;;5116310;28;20951;-66
2021/08/02 00:54:21;;;;;;;2.37;1.40;;;14.50;98.50;;;;;;5116428;28;20517;-66
2021/08/02 00:56:51;;;;;;;2.60;1.40;;;14.50;98.30;;;;;;5115981;28;20476;-66
2021/08/02 00:59:20;;;;;;;3.80;2.10;;;14.50;98.60;;;;;;5116440;28;20520;-66
2021/08/02 01:01:47;;;;;;;4.20;2.03;;;14.50;98.50;;;;;;5116053;28;20509;-67
2021/08/02 01:04:14;;;;;;;2.83;1.60;;;14.50;98.30;;;;;;5116024;28;20508;-66
2021/08/02 01:06:44;;;;;;;4.83;1.80;;;14.40;98.40;;;;;;5116037;28;20441;-67
2021/08/02 01:09:15;;;;;;;2.80;1.80;;;14.40;98.30;;;;;;5116169;28;20438;-67
2021/08/02 01:11:42;;;;;;;2.83;1.37;;;14.40;98.40;;;;;;5115962;28;20517;-67
2021/08/02 01:14:09;;;;;;;2.97;1.60;;;14.50;98.30;;;;;;5116041;28;20518;-66
2021/08/02 01:16:40;;;;;;;4.40;1.53;;;14.50;98.40;;;;;;5115915;28;20446;-68
2021/08/02 01:19:09;;;;;;;3.27;1.93;;;14.50;98.50;;;;;;5115866;28;20762;-66
2021/08/02 01:21:39;;;;;;;2.40;1.40;;;14.50;98.40;;;;;;5115746;28;20434;-67
2021/08/02 01:24:11;;;;;;;2.73;1.53;;;14.50;98.30;;;;;;5115810;28;20477;-67
2021/08/02 01:27:30;;;;;;;2.50;1.70;;;14.50;98.20;;;;;;5115668;28;20430;-66
2021/08/02 01:30:20;;;;;;;3.70;2.37;;;14.50;98.20;;;;;;5115705;28;20462;-67
2021/08/02 01:32:47;;;;;;;3.83;2.03;;;14.50;98.20;;;;;;5115159;28;20497;-67
2021/08/02 01:35:15;;;;;;;4.33;2.80;;;14.60;97.90;;;;;;5115373;28;20527;-67
2021/08/02 01:37:44;;;;;;;2.77;1.77;;;14.60;97.60;;;;;;5115595;28;20521;-67
2021/08/02 01:40:13;;;;;;;2.70;1.90;;;14.60;97.60;;;;;;5115181;28;20521;-66
2021/08/02 01:42:40;;;;;;;3.93;2.60;;;14.60;97.70;;;;;;5114948;28;20525;-67
2021/08/02 01:45:08;;;;;;;2.87;2.13;;;14.70;97.90;;;;;;5115341;28;20477;-66
2021/08/02 01:47:42;;;;;;;2.83;1.60;;;14.70;97.50;;;;;;5115263;28;20525;-67
2021/08/02 01:50:23;;;;;;;2.87;1.57;;;14.70;97.50;;;;;;5115106;28;20470;-67
2021/08/02 01:52:59;;;;;;;3.50;2.00;;;14.70;97.40;;;;;;5115013;28;20448;-68
2021/08/02 01:55:27;;;;;;;2.93;1.80;;;14.80;97.60;;;;;;5115083;28;20434;-67
2021/08/02 01:57:59;;;;;;;2.20;1.20;;;14.80;97.40;;;;;;5115165;28;20438;-67
2021/08/02 02:00:26;;;;;;;3.00;1.80;;;14.80;97.50;;;;;;5115040;28;20449;-67
2021/08/02 02:02:59;;;;;;;3.17;2.10;;;14.80;97.50;;;;;;5114875;28;20525;-67
2021/08/02 02:05:32;;;;;;;2.20;1.60;;;14.80;97.70;;;;;;5114819;28;20429;-67
2021/08/02 02:08:08;;;;;;;3.40;2.20;;;14.80;97.80;;;;;;5114883;28;20528;-68
2021/08/02 02:10:40;;;;;;;3.30;2.17;;;14.80;97.90;;;;;;5114904;28;21007;-68
2021/08/02 02:13:13;;;;;;;4.63;1.90;;;14.70;98.00;;;;;;5114841;28;20525;-67
2021/08/02 02:15:42;;;;;;;3.93;2.40;;;14.70;98.10;;;;;;5114669;28;20441;-67
2021/08/02 02:18:10;;;;;;;3.67;2.13;;;14.70;98.30;;;;;;5114437;28;20525;-68
2021/08/02 02:20:38;;;;;;;5.60;2.37;;;14.80;98.30;;;;;;5114570;28;20513;-67
2021/08/02 02:23:06;;;;;;;2.70;1.43;;;14.80;97.80;;;;;;5114739;28;20529;-67
2021/08/02 02:25:33;;;;;;;3.83;2.30;;;14.80;97.40;;;;;;5114385;28;20522;-67
2021/08/02 02:28:02;;;;;;;4.53;2.70;;;14.90;97.40;;;;;;5114441;28;20446;-67
2021/08/02 02:30:29;;;;;;;2.67;1.80;;;14.80;97.50;;;;;;5114363;28;20999;-67
2021/08/02 02:32:57;;;;;;;3.13;1.73;;;14.80;97.20;;;;;;5108592;28;20467;-67
2021/08/02 02:35:25;;;;;;;3.37;2.00;;;14.90;97.30;;;;;;5093899;28;20858;-67
2021/08/02 02:37:53;;;;;;;4.70;1.60;;;14.90;97.10;;;;;;5093960;28;20522;-68
2021/08/02 02:40:21;;;;;;;4.70;2.10;;;14.90;97.00;;;;;;5093889;28;20924;-67
2021/08/02 02:42:48;;;;;;;3.30;1.80;;;14.90;97.00;;;;;;5093804;28;20435;-67
2021/08/02 02:45:17;;;;;;;4.30;2.00;;;14.80;97.10;;;;;;5093758;28;20482;-68
2021/08/02 02:47:45;;;;;;;4.73;1.70;;;14.80;97.50;;;;;;5093689;28;20431;-68
2021/08/02 02:50:13;;;;;;;5.37;1.70;;;14.80;97.40;;;;;;5093498;28;20518;-68
2021/08/02 02:52:41;;;;;;;2.90;2.00;;;14.80;97.50;;;;;;5093612;28;21004;-69
2021/08/02 02:55:11;;;;;;;3.30;2.40;;;14.70;97.80;;;;;;5092712;28;20435;-68
2021/08/02 02:57:38;;;;;;;2.90;1.63;;;14.50;97.90;;;;;;5093242;28;20522;-68
2021/08/02 03:00:07;;;;;;;2.40;1.63;;;14.50;97.90;;;;;;5093536;28;20435;-67
2021/08/02 03:02:37;;;;;;;2.90;1.80;;;14.50;98.00;;;;;;5093113;28;20514;-68
2021/08/02 03:05:07;;;;;;;2.40;1.33;;;14.60;98.00;;;;;;5093293;28;20483;-68
2021/08/02 03:07:35;;;;;;;2.83;1.93;;;14.60;97.80;;;;;;5093437;28;20445;-68
2021/08/02 03:10:03;;;;;;;2.77;1.63;;;14.60;97.80;;;;;;5093426;28;20482;-68
2021/08/02 03:12:30;;;;;;;3.87;2.50;;;14.50;97.80;;;;;;5093288;28;20435;-68
2021/08/02 03:14:58;;;;;;;3.40;2.30;;;14.50;97.70;;;;;;5093156;28;20439;-67
2021/08/02 03:17:24;;;;;;;3.07;1.80;;;14.50;97.80;;;;;;5093192;28;20529;-67
2021/08/02 03:19:53;;;;;;;3.70;1.90;;;14.50;97.70;;;;;;5093172;28;20859;-68
2021/08/02 03:22:25;;;;;;;4.17;2.20;;;14.50;97.90;;;;;;5093080;28;20530;-68
2021/08/02 03:25:01;;;;;;;3.67;2.33;;;14.50;98.40;;;;;;5093099;28;20482;-68
2021/08/02 03:27:29;;;;;;;3.20;1.90;;;14.50;98.20;;;;;;5093015;28;20498;-67
2021/08/02 03:30:01;;;;;;;2.33;1.67;;;14.50;98.00;;;;;;5093018;28;20526;-68
2021/08/02 03:32:29;;;;;;;3.40;2.37;;;14.50;98.00;;;;;;5094705;28;20960;-67
2021/08/02 03:35:01;;;;;;;3.17;2.10;;;14.60;97.80;;;;;;5113453;28;20434;-68
2021/08/02 03:37:29;;;;;;;4.13;2.10;;;14.50;97.80;;;;;;5113465;28;20441;-68
2021/08/02 03:39:57;;;;;;;4.80;2.30;;;14.60;97.90;;;;;;5113151;28;20834;-67
2021/08/02 03:42:25;;;;;;;3.37;2.10;;;14.50;97.90;;;;;;5113111;28;20493;-68
2021/08/02 03:44:54;;;;;;;2.90;1.87;;;14.50;98.10;;;;;;5113050;28;20472;-68
2021/08/02 03:47:21;;;;;;;3.30;2.10;;;14.50;98.20;;;;;;5113056;28;20436;-67
2021/08/02 03:49:48;;;;;;;3.13;2.20;;;14.50;98.20;;;;;;5113267;28;20442;-67
2021/08/02 03:52:17;;;;;;;3.47;1.93;;;14.60;98.30;;;;;;5113034;28;20517;-67
2021/08/02 03:54:44;;;;;;;3.10;2.07;;;14.60;98.50;;;;;;5113006;28;20437;-68
2021/08/02 03:57:12;;;;;;;3.67;2.53;;;14.60;98.60;;;;;;5113148;28;20438;-68
2021/08/02 03:59:39;;;;;;;3.10;2.10;;;14.60;98.80;;;;;;5112993;28;20438;-68
2021/08/02 04:02:06;;;;;;;4.43;2.20;;;14.60;98.90;;;;;;5113217;28;20526;-68
2021/08/02 04:04:33;;;;;;;3.40;2.10;;;14.60;98.90;;;;;;5113296;28;20556;-67
2021/08/02 04:07:00;;;;;;;6.73;2.00;;;14.70;98.40;;;;;;5117118;28;20479;-68
2021/08/02 04:09:28;;;;;;;4.50;2.00;;;14.70;98.50;;;;;;5117608;28;21004;-67
2021/08/02 04:11:56;;;;;;;3.23;1.93;;;14.70;98.60;;;;;;5117666;28;20469;-68
2021/08/02 04:14:23;;;;;;;3.00;1.83;;;14.80;98.80;;;;;;5117441;28;20509;-68
2021/08/02 04:16:50;;;;;;;2.80;1.20;;;14.80;98.80;;;;;;5117058;28;20518;-68
2021/08/02 04:19:17;;;;;;;7.83;2.57;;;14.80;98.20;;;;;;5117358;28;20533;-67
2021/08/02 04:21:44;;;;;;;3.20;1.80;;;14.80;98.10;;;;;;5117345;28;20444;-68
2021/08/02 04:24:11;;;;;;;4.20;2.10;;;14.90;98.30;;;;;;5117058;28;20561;-68
2021/08/02 04:26:39;;;;;;;4.90;2.10;;;14.90;98.40;;;;;;5117166;28;20476;-68
2021/08/02 04:29:06;;;;;;;4.33;2.80;;;14.90;98.50;;;;;;5117104;28;20442;-70
2021/08/02 04:31:33;;;;;;;5.00;2.83;;;14.90;98.60;;;;;;5117143;28;20438;-68
2021/08/02 04:34:00;;;;;;;3.57;2.23;;;15.00;98.80;;;;;;5116849;28;20566;-67
2021/08/02 04:36:27;;;;;;;3.40;2.47;;;15.00;98.80;;;;;;5117066;28;20517;-68
2021/08/02 04:38:54;;;;;;;6.13;2.47;;;15.00;98.40;;;;;;5117070;28;20442;-68
2021/08/02 04:41:21;;;;;;;2.60;1.37;;;15.00;98.30;;;;;;5116863;28;20461;-68
2021/08/02 04:43:49;;;;;;;2.60;1.70;;;14.90;98.00;;;;;;5116806;28;20845;-68
2021/08/02 04:46:17;;;;;;;3.87;1.80;;;14.90;98.40;;;;;;5116706;28;20505;-68
2021/08/02 04:48:44;;;;;;;3.57;1.87;;;14.90;98.20;;;;;;5116763;28;20513;-68
2021/08/02 04:51:11;;;;;;;4.27;1.90;;;14.80;98.30;;;;;;5116658;28;20430;-68
2021/08/02 04:53:38;;;;;;;3.00;1.80;;;14.80;98.50;;;;;;5116798;28;20448;-68
2021/08/02 04:56:05;;;;;;;2.80;1.67;;;14.80;98.30;;;;;;5116600;28;20525;-69
2021/08/02 04:58:33;;;;;;;2.43;1.40;;;14.80;98.30;;;;;;5116642;28;20516;-68
2021/08/02 05:01:01;;;;;;;6.37;1.73;;;14.90;98.50;;;;;;5116580;28;20458;-68
2021/08/02 05:03:28;;;;;;;3.30;1.50;;;14.90;98.70;;;;;;5116377;28;20516;-68
2021/08/02 05:05:55;;;;;;;3.40;1.63;;;14.90;98.80;;;;;;5116594;28;20568;-68
2021/08/02 05:08:22;;;;;;;3.33;2.30;;;14.90;98.70;;;;;;5116250;28;20467;-67
2021/08/02 05:10:49;;;;;;;3.97;1.83;;;14.90;98.80;;;;;;5116357;28;20529;-67
2021/08/02 05:13:16;;;;;;;2.57;1.87;;;14.90;99.00;;;;;;5116005;27;20865;-68
2021/08/02 05:15:43;;;;;;;3.97;1.73;;;14.90;99.00;;;;;;5117182;27;20434;-67
2021/08/02 05:18:14;;;;;;;5.93;2.10;;;14.80;99.10;;;;;;5117433;27;20438;-68
2021/08/02 05:20:41;;;;;;;2.70;1.83;;;14.80;99.10;;;;;;5136073;27;20938;-68
2021/08/02 05:23:08;;;;;;;2.80;1.90;;;14.90;99.50;;;;;;5136971;27;20513;-68
2021/08/02 05:25:34;;;;;;;2.67;1.63;;;14.90;99.30;;;;;;5136709;27;20575;-68
2021/08/02 05:28:01;;;;;;;4.23;2.00;;;14.90;99.40;;;;;;5136571;27;20532;-68
2021/08/02 05:30:29;;;;;;;3.23;1.80;;;15.00;99.80;;;;;;5136682;27;20528;-68
2021/08/02 05:32:55;;;;;;;2.47;1.60;;;15.10;99.90;;;;;;5136267;27;20801;-67
2021/08/02 05:35:24;;;;;;;2.13;1.50;;;15.10;99.90;;;;;;5136327;27;20974;-68
2021/08/02 05:37:53;;;;;;;2.80;1.50;;;15.20;99.90;;;;;;5136103;27;20516;-67
2021/08/02 05:40:20;;;;;;;2.20;1.40;;;15.30;99.90;;;;;;5136153;27;20919;-68
2021/08/02 05:42:47;;;;;;;2.10;1.43;;;15.40;99.90;;;;;;5136319;27;20529;-68
2021/08/02 05:45:14;;;;;;;2.00;1.50;;;15.40;99.90;;;;;;5133791;27;20908;-68
2021/08/02 05:47:42;;;;;;;2.53;1.63;;;15.50;99.90;;;;;;5128007;27;20498;-68
2021/08/02 05:50:10;;;;;;;3.50;1.67;;;15.60;99.90;;;;;;5110925;28;20516;-69
2021/08/02 05:52:41;;;;;;;3.10;1.97;;;15.70;99.90;;;;;;5107556;27;20438;-69
2021/08/02 05:55:09;;;;;;;2.90;1.30;;;15.70;99.70;;;;;;5104614;28;20443;-68
2021/08/02 05:57:36;;;;;;;3.07;1.60;;;15.80;99.50;;;;;;5103721;28;20438;-69
2021/08/02 06:00:11;;;;;;;2.50;1.43;;;15.80;99.10;;;;;;5110736;27;20431;-68
2021/08/02 06:02:39;;;;;;;3.33;1.53;;;15.90;99.10;;;;;;5112703;27;20457;-68
2021/08/02 06:05:06;;;;;;;4.97;1.47;;;16.00;98.50;;;;;;5115170;27;20832;-68
2021/08/02 06:07:35;;;;;;;6.43;1.57;;;16.10;98.00;;;;;;5108763;27;20430;-68
2021/08/02 06:10:04;;;;;;;3.70;1.70;;;16.10;95.80;;;;;;5110094;28;20928;-68
2021/08/02 06:12:31;;;;;;;2.20;1.27;;;16.10;96.50;;;;;;5110174;28;20438;-68
2021/08/02 06:14:58;;;;;;;3.83;1.80;;;16.10;96.70;;;;;;5108468;28;20438;-68
2021/08/02 06:17:25;;;;;;;4.90;1.10;;;16.20;96.50;;;;;;5104274;28;20445;-68
2021/08/02 06:19:53;;;;;;;3.60;1.70;;;16.30;96.10;;;;;;5103426;28;20473;-68
2021/08/02 06:22:20;;;;;;;2.20;1.37;;;16.30;96.30;;;;;;5111852;28;20791;-68
2021/08/02 06:24:47;;;;;;;2.00;1.20;;;16.40;96.30;;;;;;5110709;27;20462;-73
2021/08/02 06:27:15;;;;;;;2.30;1.20;;;16.50;96.00;;;;;;5110200;28;20802;-68
2021/08/02 06:29:42;;;;;;;5.10;1.63;;;16.50;95.10;;;;;;5112999;27;20445;-68
2021/08/02 06:32:10;;;;;;;2.67;1.23;;;16.60;95.20;;;;;;5111536;28;20438;-69
2021/08/02 06:34:37;;;;;;;2.90;1.50;;;16.70;95.20;;;;;;5110909;27;20493;-69
2021/08/02 06:37:04;;;;;;;2.90;1.50;;;16.80;95.20;;;;;;5111801;28;20430;-68
2021/08/02 06:39:32;;;;;;;2.37;1.30;;;17.00;95.30;;;;;;5112118;27;20483;-68
2021/08/02 06:41:59;;;;;;;4.53;1.17;;;17.00;94.90;;;;;;5111353;28;20924;-68
2021/08/02 06:44:27;;;;;;;2.27;1.50;;;17.20;94.90;;;;;;5110751;27;20786;-68
2021/08/02 06:46:54;;;;;;;2.77;1.10;;;17.30;95.00;;;;;;5111134;28;20539;-69
2021/08/02 06:49:21;;;;;;;2.40;1.60;;;17.40;94.90;;;;;;5111435;27;20450;-68
2021/08/02 06:51:48;;;;;;;9.43;1.73;;;17.50;94.80;;;;;;5111300;28;20872;-68
2021/08/02 06:54:15;;;;;;;2.60;1.60;;;17.60;94.70;;;;;;5103222;28;20462;-69
2021/08/02 06:56:43;;;;;;;2.60;1.50;;;17.70;94.00;;;;;;5112207;28;20434;-69
2021/08/02 06:59:10;;;;;;;5.83;1.83;;;17.70;93.70;;;;;;5111995;28;20438;-68
2021/08/02 07:01:38;;;;;;;2.37;1.67;;;17.80;91.60;;;;;;5112227;28;20851;-68
2021/08/02 07:04:06;;;;;;;2.40;1.53;;;17.80;91.20;;;;;;5106724;27;20533;-67
2021/08/02 07:06:33;;;;;;;2.03;1.13;;;17.90;91.30;;;;;;5115402;27;20474;-68
2021/08/02 07:09:00;;;;;;;2.17;1.17;;;18.10;92.20;;;;;;5112216;28;20449;-67
2021/08/02 07:11:27;;;;;;;2.10;1.40;;;18.20;92.50;;;;;;5112356;28;20449;-70
2021/08/02 07:13:55;;;;;;;2.33;1.70;;;18.30;92.40;;;;;;5108368;28;20936;-68
2021/08/02 07:16:22;;;;;;;2.30;1.20;;;18.40;92.40;;;;;;5111102;28;20470;-68
2021/08/02 07:18:52;;;;;;;2.13;0.87;;;18.50;92.40;;;;;;5111983;28;20438;-68
2021/08/02 07:21:20;;;;;;;2.90;1.30;;;18.50;90.50;;;;;;5110859;28;20784;-68
2021/08/02 07:23:48;;;;;;;5.60;1.30;;;18.60;87.40;;;;;;5111868;28;20920;-68
2021/08/02 07:26:16;;;;;;;2.37;1.70;;;18.60;88.20;;;;;;5110080;28;20879;-68
2021/08/02 07:28:43;;;;;;;2.73;1.43;;;18.60;90.30;;;;;;5111568;28;20442;-67
2021/08/02 07:31:10;;;;;;;4.57;1.70;;;18.70;89.30;;;;;;5106064;28;20522;-71
2021/08/02 07:33:39;;;;;;;2.47;1.53;;;18.80;89.00;;;;;;5111917;28;20581;-68
2021/08/02 07:36:08;;;;;;;2.73;1.40;;;18.90;88.50;;;;;;5110149;28;20442;-68
2021/08/02 07:38:35;;;;;;;2.53;1.37;;;18.90;86.40;;;;;;5108278;28;20453;-68
2021/08/02 07:41:02;;;;;;;2.80;1.30;;;19.00;84.70;;;;;;5106872;28;20442;-68
2021/08/02 07:43:29;;;;;;;3.10;1.50;;;19.00;84.70;;;;;;5102824;28;20434;-68
2021/08/02 07:45:56;;;;;;;2.07;1.37;;;19.00;85.60;;;;;;5110695;28;20561;-69
2021/08/02 07:48:23;;;;;;;2.50;1.30;;;19.20;87.30;;;;;;5110142;28;20442;-70
2021/08/02 07:50:50;;;;;;;3.37;1.40;;;19.30;84.90;;;;;;5110507;28;20434;-68
2021/08/02 07:53:18;;;;;;;2.93;1.20;;;19.40;86.70;;;;;;5109914;28;20461;-68
2021/08/02 07:55:45;;;;;;;2.33;1.27;;;19.60;85.20;;;;;;5103583;28;20943;-68
2021/08/02 07:58:13;;;;;;;3.03;1.57;;;19.80;81.60;;;;;;5107422;28;20434;-68
2021/08/02 08:00:40;;;;;;;2.70;1.40;;;20.00;82.20;;;;;;5108034;28;20560;-68
2021/08/02 08:03:07;;;;;;;2.33;1.30;;;20.40;82.30;;;;;;5110139;28;20525;-68
2021/08/02 08:05:34;;;;;;;4.07;1.40;;;20.60;82.80;;;;;;5114833;28;20995;-69
2021/08/02 08:08:01;;;;;;;4.27;1.43;;;20.80;83.90;;;;;;5108879;28;20520;-68
2021/08/02 08:10:29;;;;;;;3.23;1.70;;;21.00;84.10;;;;;;5109432;28;20520;-68
2021/08/02 08:12:57;;;;;;;2.67;1.50;;;21.10;84.40;;;;;;5110643;28;20445;-68
2021/08/02 08:15:25;;;;;;;3.60;1.43;;;21.20;82.60;;;;;;5110206;28;20461;-69
2021/08/02 08:17:53;;;;;;;3.00;1.40;;;21.30;80.50;;;;;;5109856;28;20513;-68
2021/08/02 08:20:22;;;;;;;2.67;1.67;;;21.30;80.70;;;;;;5109783;28;20462;-68
2021/08/02 08:22:49;;;;;;;2.53;1.33;;;21.40;75.90;;;;;;5109925;28;21020;-68
2021/08/02 08:25:16;;;;;;;2.90;1.50;;;21.40;76.90;;;;;;5111091;28;20494;-69
2021/08/02 08:27:46;;;;;;;3.67;1.80;;;21.60;78.10;;;;;;5106380;28;20438;-69
2021/08/02 08:30:15;;;;;;;2.20;1.40;;;21.70;78.00;;;;;;5105085;28;20438;-68
2021/08/02 08:32:42;;;;;;;4.50;1.40;;;21.90;78.40;;;;;;5108487;28;20462;-68
2021/08/02 08:35:10;;;;;;;2.57;1.50;;;22.00;77.80;;;;;;5108462;28;21011;-68
2021/08/02 08:37:38;;;;;;;3.13;1.60;;;22.20;76.40;;;;;;5105521;28;20491;-68
2021/08/02 08:40:07;;;;;;;2.70;1.47;;;22.40;76.50;;;;;;5108590;28;20483;-69
2021/08/02 08:42:35;;;;;;;4.17;1.43;;;22.60;72.90;;;;;;5103791;28;20441;-69
2021/08/02 08:45:05;;;;;;;3.33;1.33;;;22.80;70.90;;;;;;5107945;28;20505;-68
2021/08/02 08:47:34;;;;;;;3.53;1.80;;;22.90;70.90;;;;;;5110054;28;20470;-68
2021/08/02 08:50:06;;;;;;;3.50;1.93;;;23.00;67.00;;;;;;5101839;28;20431;-70
2021/08/02 08:52:35;;;;;;;2.53;1.33;;;23.10;68.70;;;;;;5108063;28;20441;-68
2021/08/02 08:55:07;;;;;;;2.10;1.30;;;23.20;70.90;;;;;;5111804;28;20433;-68
2021/08/02 08:57:33;;;;;;;3.27;1.50;;;23.30;69.40;;;;;;5112461;28;20462;-70
2021/08/02 09:00:01;;;;;;;3.37;1.20;;;23.50;69.20;;;;;;5114836;28;20434;-68
2021/08/02 09:02:31;;;;;;;2.57;1.33;;;23.80;69.40;;;;;;5114489;28;20795;-68
2021/08/02 09:05:00;;;;;;;3.60;1.77;;;24.00;68.90;;;;;;5114556;28;20534;-70
2021/08/02 09:07:35;;;;;;;2.67;1.40;;;24.30;68.40;;;;;;5109648;28;20475;-68
2021/08/02 09:10:04;;;;;;;2.67;1.80;;;24.50;67.60;;;;;;5111398;28;20457;-71
2021/08/02 09:12:32;;;;;;;3.23;1.53;;;24.60;68.10;;;;;;5112618;28;20496;-68
2021/08/02 09:15:02;;;;;;;1.90;1.10;;;24.60;58.90;;;;;;5104826;28;20432;-74
2021/08/02 09:17:38;;;;;;;3.60;1.30;;;24.70;63.50;;;;;;5109197;28;20436;-68
2021/08/02 09:20:07;;;;;;;3.20;1.37;;;24.80;58.40;;;;;;5111903;28;20792;-69
2021/08/02 09:22:37;;;;;;;2.57;1.40;;;25.00;60.90;;;;;;5112820;28;20431;-68
2021/08/02 09:25:06;;;;;;;3.77;1.60;;;25.00;60.20;;;;;;5097700;28;20476;-68
2021/08/02 09:27:34;;;;;;;3.30;1.77;;;25.00;59.30;;;;;;5112482;28;20483;-68
2021/08/02 09:30:13;;;;;;;2.20;1.30;;;24.90;59.00;;;;;;5113764;28;20431;-68
2021/08/02 09:32:52;;;;;;;3.20;1.47;;;24.90;58.70;;;;;;5113035;28;20926;-69
2021/08/02 09:35:31;;;;;;;2.33;1.60;;;25.10;61.20;;;;;;5096798;28;20475;-68
2021/08/02 09:38:00;;;;;;;2.30;1.37;;;25.30;62.10;;;;;;5098998;28;20430;-70
2021/08/02 09:40:27;;;;;;;2.40;1.40;;;25.40;59.60;;;;;;5110682;28;20443;-69
2021/08/02 09:42:55;;;;;;;4.90;1.60;;;25.60;59.30;;;;;;5100277;28;20437;-68
2021/08/02 09:45:22;;;;;;;2.10;1.20;;;25.80;59.10;;;;;;5100531;28;20442;-70
2021/08/02 09:47:52;;;;;;;2.43;1.17;;;25.90;58.40;;;;;;5111835;28;20462;-68
2021/08/02 09:50:30;;;;;;;3.37;2.20;;;26.10;57.60;;;;;;5105228;28;20492;-69
2021/08/02 09:52:58;;;;;;;2.70;1.30;;;26.20;58.50;;;;;;5098261;28;20515;-68
2021/08/02 09:55:26;;;;;;;3.10;1.47;;;26.40;56.20;;;;;;5094531;28;20458;-68
2021/08/02 09:57:55;;;;;;;2.50;1.40;;;26.50;55.70;;;;;;5097605;28;20434;-68
2021/08/02 10:00:23;;;;;;;2.20;1.20;;;26.80;55.40;;;;;;5094245;28;20435;-70
2021/08/02 10:02:52;;;;;;;3.50;1.60;;;27.40;53.50;;;;;;5104598;28;20442;-68
2021/08/02 10:05:21;;;;;;;3.70;1.60;;;27.70;50.80;;;;;;5103765;28;20493;-68
2021/08/02 10:07:49;;;;;;;3.60;1.47;;;28.00;51.10;;;;;;5105049;28;20528;-69
2021/08/02 10:10:18;;;;;;;2.83;2.13;;;28.20;49.80;;;;;;5107967;28;20798;-68
2021/08/02 10:12:47;;;;;;;2.13;1.30;;;28.20;49.60;;;;;;5103937;28;20439;-68
2021/08/02 10:15:17;;;;;;;2.97;1.57;;;27.90;47.10;;;;;;5108369;28;20492;-68
2021/08/02 10:17:50;;;;;;;3.80;1.50;;;27.60;48.00;;;;;;5093256;28;20451;-68
2021/08/02 10:20:23;;;;;;;3.50;1.67;;;27.40;46.80;;;;;;5093928;28;20439;-68
2021/08/02 10:22:51;;;;;;;3.33;1.80;;;27.00;48.50;;;;;;5097471;28;20446;-69
2021/08/02 10:25:19;;;;;;;2.37;1.20;;;26.60;49.10;;;;;;5093954;28;20488;-68
2021/08/02 10:27:46;;;;;;;3.73;1.60;;;26.40;50.00;;;;;;5109622;28;20513;-67
2021/08/02 10:30:24;;;;;;;4.93;1.50;;;26.00;50.70;;;;;;5113026;28;20445;-67
2021/08/02 10:32:55;;;;;;;2.67;1.30;;;25.70;50.50;;;;;;5112750;28;20461;-67
2021/08/02 10:35:44;;;;;;;3.90;1.37;;;25.40;52.20;;;;;;5113220;28;20512;-68
2021/08/02 10:38:13;;;;;;;2.17;1.30;;;25.20;52.80;;;;;;5109804;28;20943;-67
2021/08/02 10:40:54;;;;;;;3.90;1.77;;;25.20;55.10;;;;;;5113184;28;20503;-67
2021/08/02 10:43:32;;;;;;;5.30;1.47;;;25.40;58.80;;;;;;5111479;28;20834;-68
2021/08/02 10:46:02;;;;;;;2.47;1.30;;;25.80;56.70;;;;;;5111121;28;20433;-67
2021/08/02 10:48:33;;;;;;;2.40;1.50;;;26.10;54.60;;;;;;5112775;28;20442;-68
2021/08/02 10:51:12;;;;;;;2.20;1.37;;;26.10;52.40;;;;;;5112903;28;20452;-67
2021/08/02 10:53:39;;;;;;;2.83;1.63;;;25.90;52.70;;;;;;5112712;28;20495;-67
2021/08/02 10:56:06;;;;;;;3.03;1.30;;;25.70;51.70;;;;;;5111161;28;20526;-68
2021/08/02 10:58:37;;;;;;;2.57;1.50;;;25.40;52.40;;;;;;5112812;28;20449;-68
2021/08/02 11:01:06;;;;;;;2.30;1.47;;;25.20;53.10;;;;;;5111796;28;20485;-68
2021/08/02 11:03:37;;;;;;;3.33;1.57;;;25.00;53.50;;;;;;5113010;28;20450;-67
2021/08/02 11:06:13;;;;;;;2.07;1.10;;;24.90;53.20;;;;;;5110700;28;20501;-69
2021/08/02 11:08:46;;;;;;;2.40;1.50;;;24.80;54.10;;;;;;5109994;28;20433;-67
2021/08/02 11:11:20;;;;;;;3.50;1.50;;;24.70;55.30;;;;;;5109616;28;20442;-68
2021/08/02 11:13:47;;;;;;;3.30;1.60;;;24.80;56.20;;;;;;5110214;28;20447;-67
2021/08/02 11:16:15;;;;;;;2.80;1.43;;;25.00;58.10;;;;;;5106759;28;20445;-69
2021/08/02 11:18:44;;;;;;;3.20;1.47;;;25.30;56.30;;;;;;5108760;28;20928;-67
2021/08/02 11:21:24;;;;;;;2.70;1.30;;;25.70;55.60;;;;;;5112209;28;20857;-68
2021/08/02 11:23:53;;;;;;;3.50;1.47;;;26.10;54.90;;;;;;5112289;28;20440;-68
2021/08/02 11:26:21;;;;;;;2.67;1.57;;;26.40;54.50;;;;;;5110187;28;20903;-68
2021/08/02 11:28:54;;;;;;;2.00;1.30;;;26.40;52.90;;;;;;5110417;28;20985;-68
2021/08/02 11:31:26;;;;;;;4.70;1.33;;;26.40;54.70;;;;;;5112218;28;20513;-67
2021/08/02 11:33:54;;;;;;;2.43;1.67;;;26.50;50.60;;;;;;5110798;28;20478;-67
2021/08/02 11:36:28;;;;;;;2.80;1.40;;;26.40;49.40;;;;;;5109784;28;20942;-67
2021/08/02 11:38:55;;;;;;;4.63;1.60;;;26.10;49.50;;;;;;5112214;28;20445;-67
2021/08/02 11:41:27;;;;;;;2.83;1.70;;;25.90;51.20;;;;;;5111119;28;20438;-67
2021/08/02 11:43:56;;;;;;;3.07;1.73;;;25.60;53.60;;;;;;5111703;28;20426;-67
2021/08/02 11:46:29;;;;;;;2.47;1.43;;;25.60;55.20;;;;;;5110386;28;20927;-67
2021/08/02 11:48:56;;;;;;;2.50;1.40;;;25.60;57.40;;;;;;5110161;28;20529;-68
2021/08/02 11:51:25;;;;;;;3.00;1.50;;;25.60;56.40;;;;;;5111963;28;20532;-68
2021/08/02 11:53:52;;;;;;;2.63;1.40;;;25.60;55.80;;;;;;5112551;28;20491;-67
2021/08/02 11:56:19;;;;;;;2.20;1.40;;;25.60;55.40;;;;;;5109505;28;20476;-67
2021/08/02 11:58:48;;;;;;;2.43;1.50;;;25.70;55.30;;;;;;5107720;28;20438;-68
2021/08/02 12:01:16;;;;;;;3.07;1.80;;;25.80;57.00;;;;;;5111651;28;20439;-67
2021/08/02 12:03:46;;;;;;;3.27;1.37;;;25.90;55.60;;;;;;5111891;28;20521;-67
2021/08/02 12:06:13;;;;;;;2.77;1.57;;;26.10;55.70;;;;;;5108595;28;20513;-67
2021/08/02 12:08:51;;;;;;;2.20;1.53;;;26.30;56.00;;;;;;5111638;28;20525;-68
2021/08/02 12:11:20;;;;;;;2.70;1.70;;;26.60;57.50;;;;;;5112447;28;20520;-67
2021/08/02 12:13:50;;;;;;;3.77;1.70;;;26.80;54.70;;;;;;5111933;28;20441;-68
2021/08/02 12:16:28;;;;;;;3.30;1.97;;;27.10;54.00;;;;;;5110938;28;20438;-67
2021/08/02 12:19:09;;;;;;;2.73;1.47;;;27.30;54.70;;;;;;5110876;28;20456;-67
2021/08/02 12:21:37;;;;;;;2.87;1.43;;;27.40;52.60;;;;;;5108978;28;20979;-68
2021/08/02 12:24:11;;;;;;;2.60;1.90;;;27.40;52.70;;;;;;5112283;28;20438;-67
2021/08/02 12:26:49;;;;;;;2.17;1.40;;;27.50;51.50;;;;;;5111952;28;20523;-68
2021/08/02 12:29:22;;;;;;;2.20;1.17;;;27.50;50.30;;;;;;5116232;28;20437;-68
2021/08/02 12:31:55;;;;;;;2.80;1.63;;;27.60;50.40;;;;;;5115781;28;20442;-67
2021/08/02 12:34:23;;;;;;;3.00;1.60;;;27.70;51.40;;;;;;5115450;28;20473;-67
2021/08/02 12:36:51;;;;;;;3.37;1.50;;;27.90;50.50;;;;;;5115136;28;20856;-68
2021/08/02 12:39:20;;;;;;;4.80;1.40;;;27.90;51.60;;;;;;5115905;28;20534;-68
2021/08/02 12:41:47;;;;;;;3.07;1.30;;;28.00;50.10;;;;;;5115424;28;20545;-68
2021/08/02 12:44:14;;;;;;;4.07;1.83;;;28.00;50.10;;;;;;5115815;28;20521;-68
2021/08/02 12:46:41;;;;;;;3.00;1.53;;;27.90;51.40;;;;;;5114369;28;20850;-68
2021/08/02 12:49:08;;;;;;;4.10;1.57;;;27.70;50.60;;;;;;5115686;28;20523;-68
2021/08/02 12:51:34;;;;;;;3.03;1.47;;;27.70;51.10;;;;;;5114338;28;20529;-68
2021/08/02 12:54:01;;;;;;;2.83;1.70;;;27.60;52.20;;;;;;5115776;28;20857;-68
2021/08/02 12:56:30;;;;;;;2.30;1.50;;;27.60;50.10;;;;;;5114174;28;20519;-68
2021/08/02 12:58:57;;;;;;;2.30;1.37;;;27.50;49.10;;;;;;5115612;28;20530;-67